ロンドン/ヒースロー の空港の天気 - METARとTAF

ロンドン・ヒースロー空港 ( EGLL / LHR ) - イギリス ロンドン
飛行場実況気象(Metar)
観測時間04/16 12:50 BST (04/16 11:50 UTC)
風向・風速北 3m/s
視程10km以上
天気現象
全天の8割程度の雲 雲底高度 1310m
気温10℃
湿度46%
気圧1031hPa
METAREGLL 161150Z AUTO VRB05KT 9999 BKN043 10/M01 Q1031
過去の天気等 Google飛行場航空写真 Wunderground天気予報

過去48時間のMETAR

飛行場予報(TAF)
発表時間: 4/16 05:52 BST (4/16 04:52 UTC)
予報対象時間: 16日7時 BST ~ 17日13時 BST
風向・風速北東 3m/s
視程10km以上
全天の4割程度の雲 雲底高度 1220m
16日7時 BST ~ 16日8時 BST に一時的に
視程8000m
17日4時 BST から 確率 40% で
視程8000m
TAF EGLL 160452Z 1606/1712 04006KT 9999 SCT040
TEMPO 1606/1607 8000
PROB40 1703/1707 8000